Latest Weather Observations for White Cliffs AWS

IDN60801

Issued at 3:32 pm EDT Saturday 17 November 2018 (issued every 10 minutes, with the page automatically refreshed every 10 minutes)

About weather observations | Map of weather stations | Latest weather observations for NSW | Other Formats
Station Details ID: 046129 Name: WHITE CLIFFS AWS Lat: -30.85 Lon: 143.07 Height: 158.0 m
Data from the previous 72 hours. | See also: Recent months at White Cliffs AWS
Date/Time
EDT
Temp
°C
App
Temp
°C
Dew
Point
°C
Rel
Hum
%
Delta-T
°C
Wind Press
QNH
hPa
Press
MSL
hPa
Rain since
9am
mm
Dir  Spd
km/h
Gust
km/h
Spd
kts
Gust
kts
17/03:30pm 30.9 23.8 -4.2 10 15.8 S 24 39 13 21 1015.0 1014.2 0.0
17/03:00pm 30.4 24.0 -4.6 10 15.6 S 20 33 11 18 1015.6 1014.8 0.0
17/02:30pm 30.0 24.3 -3.6 11 15.2 SW 17 26 9 14 1016.1 1015.3 0.0
17/02:00pm 30.7 24.1 -3.1 11 15.5 SSE 22 46 12 25 1016.5 1015.7 0.0
17/01:52pm 30.7 23.7 -3.1 11 15.5 S 24 46 13 25 1016.6 1015.8 0.0
17/01:30pm 29.6 23.4 -2.8 12 14.8 SE 20 32 11 17 1016.8 1016.0 0.0
17/01:00pm 29.4 24.2 -2.9 12 14.7 SSE 15 24 8 13 1017.2 1016.4 0.0
17/12:30pm 28.2 22.6 -2.8 13 14.0 S 17 24 9 13 1017.8 1017.0 0.0
17/12:00pm 28.2 23.1 -1.8 14 13.8 SE 15 24 8 13 1018.0 1017.2 0.0
17/11:30am 27.2 22.5 -1.7 15 13.2 SE 13 17 7 9 1018.2 1017.4 0.0
17/11:00am 26.7 22.1 -1.2 16 12.8 SE 13 20 7 11 1018.3 1017.5 0.0
17/10:30am 25.4 20.0 -1.4 17 12.1 SSE 17 22 9 12 1018.3 1017.5 0.0
17/10:00am 24.7 18.9 -1.2 18 11.7 S 19 24 10 13 1018.3 1017.5 0.0
17/09:30am 23.7 17.5 -0.6 20 11.0 S 22 28 12 15 1018.4 1017.6 0.0
17/09:00am 22.4 15.3 -1.0 21 10.4 S 26 32 14 17 1018.2 1017.4 0.0
17/08:30am 21.3 13.5 -0.6 23 9.7 S 30 35 16 19 1018.0 1017.2 0.0
17/08:00am 20.8 13.1 0.1 25 9.3 S 30 39 16 21 1017.9 1017.1 0.0
17/07:30am 19.8 12.8 -0.2 26 8.9 S 26 32 14 17 1017.6 1016.8 0.0
17/07:00am 18.6 12.3 -0.7 27 8.4 SSW 22 26 12 14 1017.3 1016.5 0.0
17/06:30am 18.0 12.3 -0.8 28 8.1 SSW 19 22 10 12 1016.9 1016.1 0.0
17/06:00am 18.3 12.9 -1.0 27 8.3 SSW 17 20 9 11 1016.6 1015.8 0.0
17/05:30am 18.7 12.9 -1.2 26 8.5 SSW 19 22 10 12 1016.1 1015.3 0.0
17/05:00am 19.9 14.4 -1.8 23 9.3 S 17 19 9 10 1015.8 1015.0 0.0
17/04:30am 20.0 15.3 -1.7 23 9.3 S 13 17 7 9 1015.7 1014.9 0.0
17/04:00am 20.7 15.6 -1.8 22 9.7 SSE 15 19 8 10 1015.4 1014.6 0.0
17/03:30am 22.0 16.4 -2.7 19 10.6 SSE 17 22 9 12 1015.3 1014.5 0.0
17/03:00am 21.6 16.2 -1.6 21 10.1 SSE 17 20 9 11 1015.3 1014.5 0.0
17/02:30am 21.9 16.1 -1.4 21 10.3 SSE 19 22 10 12 1015.7 1014.9 0.0
17/02:00am 22.6 16.9 -0.8 21 10.5 S 19 22 10 12 1015.9 1015.1 0.0
17/01:30am 23.1 17.7 -1.1 20 10.8 S 17 22 9 12 1016.2 1015.5 0.0
17/01:00am 23.0 18.1 -0.5 21 10.6 SSE 15 19 8 10 1016.7 1015.9 0.0
17/12:30am 23.2 18.3 -0.3 21 10.7 S 15 17 8 9 1017.1 1016.3 0.0
17/12:00am 24.4 19.1 -0.7 19 11.4 S 17 20 9 11 1016.9 1016.1 0.0
 
Date/Time
EDT
Temp
°C
App
Temp
°C
Dew
Point
°C
Rel
Hum
%
Delta-T
°C
Wind Press
QNH
hPa
Press
MSL
hPa
Rain since
9am
mm
Dir  Spd
km/h
Gust
km/h
Spd
kts
Gust
kts
16/11:30pm 25.1 19.4 -0.9 18 11.9 SSE 19 22 10 12 1016.9 1016.1 0.0
16/11:00pm 25.4 19.6 -1.4 17 12.1 SSE 19 20 10 11 1017.0 1016.2 0.0
16/10:30pm 25.9 20.1 -1.8 16 12.5 SSE 19 20 10 11 1017.0 1016.2 0.0
16/10:00pm 26.5 20.6 -2.2 15 12.9 SSE 19 24 10 13 1016.7 1015.9 0.0
16/09:30pm 26.9 21.0 -1.9 15 13.1 SSE 19 22 10 12 1016.3 1015.6 0.0
16/09:00pm 27.7 21.8 -2.2 14 13.6 SSE 19 24 10 13 1016.1 1015.3 0.0
16/08:30pm 28.6 22.7 -2.5 13 14.2 SSE 19 22 10 12 1015.8 1015.0 0.0
16/08:00pm 29.4 23.5 -1.9 13 14.5 SSE 19 24 10 13 1015.6 1014.8 0.0
16/07:30pm 30.3 24.8 -2.2 12 15.1 S 17 24 9 13 1015.1 1014.3 0.0
16/07:00pm 30.7 24.1 -3.1 11 15.5 S 22 32 12 17 1015.0 1014.2 0.0
16/06:30pm 31.3 25.4 -2.6 11 15.7 SSW 19 24 10 13 1014.8 1014.0 0.0
16/06:00pm 31.0 26.2 -2.9 11 15.6 SSW 13 20 7 11 1014.7 1013.9 0.0
16/05:30pm 31.6 25.5 -2.4 11 15.9 SSW 20 30 11 16 1014.8 1014.0 0.0
16/05:00pm 31.7 26.3 -1.2 12 15.7 SSE 17 24 9 13 1014.8 1014.0 0.0
16/04:30pm 31.4 26.4 -1.4 12 15.6 SSW 15 28 8 15 1014.9 1014.1 0.0
16/04:00pm 31.5 26.5 -1.3 12 15.6 SW 15 28 8 15 1015.3 1014.5 0.0
16/03:30pm 31.6 25.8 -0.1 13 15.4 SSW 20 32 11 17 1015.7 1014.9 0.0
16/03:00pm 30.6 24.7 -0.9 13 15.0 SSW 20 32 11 17 1016.2 1015.5 0.0
16/02:30pm 30.4 24.8 -0.1 14 14.7 SSW 19 28 10 15 1016.8 1016.0 0.0
16/02:00pm 29.7 24.9 0.3 15 14.2 SSE 15 24 8 13 1017.1 1016.3 0.0
16/01:30pm 29.8 24.5 -0.5 14 14.4 S 17 26 9 14 1017.6 1016.8 0.0
16/01:00pm 29.6 24.7 2.0 17 13.7 S 17 26 9 14 1018.0 1017.2 0.0
16/12:30pm 28.2 25.2 1.7 18 13.0 SSE 7 13 4 7 1018.3 1017.5 0.0
16/12:00pm 28.4 24.6 4.0 21 12.4 SSW 13 20 7 11 1018.7 1017.9 0.0
16/11:30am 27.2 24.1 3.7 22 11.8 E 9 15 5 8 1018.8 1018.0 0.0
16/11:00am 27.6 23.9 4.6 23 11.8 SE 13 19 7 10 1018.8 1018.0 0.0
16/10:30am 25.6 21.6 2.9 23 11.1 SE 13 20 7 11 1018.9 1018.1 0.0
16/10:00am 25.0 21.1 3.6 25 10.6 ESE 13 17 7 9 1019.0 1018.2 0.0
16/09:30am 24.3 20.4 3.6 26 10.2 SE 13 15 7 8 1018.9 1018.1 0.0
16/09:00am 23.8 20.0 3.7 27 9.9 SE 13 19 7 10 1018.9 1018.1 0.0
16/08:30am 23.0 18.7 3.5 28 9.5 SE 15 20 8 11 1018.8 1018.0 0.0
16/08:00am 22.2 18.3 3.3 29 9.1 SE 13 19 7 10 1018.5 1017.7 0.0
16/07:30am 21.3 16.7 3.5 31 8.6 SE 17 24 9 13 1018.4 1017.6 0.0
16/07:00am 19.3 15.5 3.9 36 7.4 SSE 13 17 7 9 1018.2 1017.4 0.0
16/06:30am 18.3 14.2 4.1 39 6.8 S 15 17 8 9 1017.9 1017.1 0.0
16/06:00am 18.6 14.8 4.0 38 7.0 SSE 13 15 7 8 1017.6 1016.8 0.0
16/05:30am 19.1 14.9 3.7 36 7.3 S 15 15 8 8 1017.5 1016.7 0.0
16/05:00am 19.6 15.3 3.3 34 7.7 SSE 15 19 8 10 1017.3 1016.5 0.0
16/04:30am 20.1 15.4 3.3 33 8.0 SSE 17 19 9 10 1017.4 1016.6 0.0
16/04:00am 20.6 15.5 2.9 31 8.4 S 19 24 10 13 1017.4 1016.6 0.0
16/03:30am 21.0 15.9 2.8 30 8.6 S 19 24 10 13 1017.5 1016.7 0.0
16/03:00am 21.4 16.0 2.6 29 8.9 S 20 26 11 14 1017.6 1016.8 0.0
16/02:30am 21.8 16.0 2.5 28 9.2 S 22 28 12 15 1017.7 1016.9 0.0
16/02:00am 22.1 16.9 3.3 29 9.1 S 20 26 11 14 1018.0 1017.2 0.0
16/01:30am 22.6 17.6 4.6 31 8.9 S 20 26 11 14 1018.4 1017.6 0.0
16/01:00am 23.0 18.3 5.9 33 8.7 S 20 26 11 14 1018.6 1017.8 0.0
16/12:30am 23.6 17.5 6.4 33 8.9 S 28 35 15 19 1018.7 1017.9 0.0
16/12:00am 24.1 18.8 6.8 33 9.0 S 24 33 13 18 1018.9 1018.1 0.0
 
Date/Time
EDT
Temp
°C
App
Temp
°C
Dew
Point
°C
Rel
Hum
%
Delta-T
°C
Wind Press
QNH
hPa
Press
MSL
hPa
Rain since
9am
mm
Dir  Spd
km/h
Gust
km/h
Spd
kts
Gust
kts
15/11:30pm 24.8 19.3 7.4 33 9.2 S 26 33 14 18 1019.0 1018.2 0.0
15/11:00pm 25.5 21.6 8.5 34 9.2 S 19 22 10 12 1019.0 1018.2 0.0
15/10:30pm 25.9 22.3 8.4 33 9.5 SSE 17 20 9 11 1019.0 1018.2 0.0
15/10:00pm 26.6 22.5 8.6 32 9.8 SSE 20 24 11 13 1018.8 1018.0 0.0
15/09:30pm 27.1 22.6 8.5 31 10.2 SSE 22 28 12 15 1018.4 1017.6 0.0
15/09:00pm 27.5 22.6 8.4 30 10.4 SSE 24 33 13 18 1018.1 1017.3 0.0
15/08:30pm 28.1 23.1 7.9 28 11.0 S 24 30 13 16 1017.8 1017.0 0.0
15/08:00pm 28.9 23.9 8.0 27 11.4 S 24 28 13 15 1017.6 1016.8 0.0
15/07:30pm 29.5 24.9 8.0 26 11.8 S 22 39 12 21 1017.3 1016.5 0.0
15/07:00pm 30.2 26.9 8.0 25 12.2 S 15 24 8 13 1016.9 1016.1 0.0
15/06:30pm 30.5 26.3 8.3 25 12.3 S 20 32 11 17 1016.7 1015.9 0.0
15/06:00pm 30.9 26.8 8.6 25 12.4 SW 20 33 11 18 1016.7 1015.9 0.0
15/05:30pm 30.7 26.7 8.4 25 12.4 SSW 19 32 10 17 1016.6 1015.8 0.0
15/05:00pm 30.9 26.3 8.0 24 12.7 SSW 22 33 12 18 1016.8 1016.0 0.0
15/04:30pm 31.2 26.6 8.2 24 12.8 SW 22 33 12 18 1016.8 1016.0 0.0
15/04:00pm 31.7 27.5 7.4 22 13.4 S 19 32 10 17 1016.9 1016.1 0.0
15/03:30pm 31.0 27.2 7.5 23 12.9 S 17 26 9 14 1017.2 1016.4 0.0
15/03:00pm 30.6 26.6 8.3 25 12.4 S 19 30 10 16 1017.7 1016.9 0.0
15/02:30pm 29.2 25.6 8.3 27 11.5 SSE 17 30 9 16 1018.2 1017.4 0.0
15/02:00pm 30.0 26.2 9.0 27 11.7 SSE 19 32 10 17 1018.6 1017.8 0.0
15/01:30pm 29.2 24.9 9.3 29 11.2 SSE 22 33 12 18 1019.0 1018.2 0.0
15/01:00pm 28.6 23.8 8.8 29 10.9 SSE 24 33 13 18 1019.1 1018.3 0.0
15/12:30pm 28.4 24.2 9.6 31 10.5 SSE 22 32 12 17 1019.4 1018.6 0.0
15/12:00pm 27.2 22.6 9.5 33 9.8 SSE 24 35 13 19 1019.8 1019.0 0.0
15/11:30am 26.2 21.5 9.1 34 9.4 SSE 24 32 13 17 1019.9 1019.1 0.0
15/11:00am 24.7 19.8 8.6 36 8.7 SSE 24 35 13 19 1020.3 1019.5 0.0
15/10:30am 23.6 18.3 8.5 38 8.1 SSE 26 35 14 19 1020.3 1019.5 0.0
15/10:00am 23.0 16.9 8.3 39 7.8 SSE 30 35 16 19 1020.3 1019.5 0.0
15/09:30am 22.9 17.0 9.0 41 7.5 SSE 30 39 16 21 1020.3 1019.5 0.0
15/09:00am 22.1 16.2 8.9 43 7.1 SSE 30 39 16 21 1020.0 1019.2 0.2
15/08:30am 21.5 15.5 8.7 44 6.8 SSE 30 39 16 21 1019.7 1018.9 0.2
15/08:00am 20.8 15.2 8.8 46 6.4 SSE 28 37 15 20 1019.4 1018.6 0.2
15/07:30am 20.1 14.6 9.1 49 5.9 S 28 35 15 19 1019.1 1018.3 0.2
15/07:00am 19.9 14.7 8.9 49 5.8 S 26 32 14 17 1018.7 1017.9 0.2
15/06:30am 19.9 15.1 8.9 49 5.8 S 24 30 13 16 1018.2 1017.4 0.2
15/06:00am 20.4 14.8 8.7 47 6.2 S 28 35 15 19 1017.8 1017.0 0.2
15/05:30am 20.9 15.0 8.9 46 6.4 S 30 37 16 20 1017.2 1016.4 0.2
15/05:00am 21.4 16.3 9.3 46 6.5 S 26 32 14 17 1016.7 1015.9 0.2
15/04:30am 22.0 17.3 9.2 44 6.9 S 24 32 13 17 1016.5 1015.7 0.2
15/04:00am 22.7 18.4 9.5 43 7.2 SSE 22 26 12 14 1016.1 1015.3 0.2
15/03:30am 23.0 19.5 10.8 46 6.8 S 20 26 11 14 1016.0 1015.2 0.2
15/03:00am 23.3 20.2 12.3 50 6.3 S 20 26 11 14 1015.9 1015.1 0.2
15/02:30am 23.7 21.2 13.6 53 5.9 S 19 22 10 12 1016.0 1015.2 0.2
15/02:00am 24.0 21.5 14.1 54 5.9 S 20 24 11 13 1016.1 1015.3 0.2
15/01:30am 24.4 22.2 14.5 54 5.9 S 19 20 10 11 1016.2 1015.5 0.2
15/01:00am 24.8 22.5 14.6 53 6.1 S 20 26 11 14 1016.5 1015.7 0.2
15/12:30am 25.3 21.9 13.8 49 6.8 S 24 28 13 15 1016.5 1015.7 0.2
15/12:00am 25.9 22.4 13.4 46 7.4 S 24 32 13 17 1016.6 1015.8 0.2
 
Date/Time
EDT
Temp
°C
App
Temp
°C
Dew
Point
°C
Rel
Hum
%
Delta-T
°C
Wind Press
QNH
hPa
Press
MSL
hPa
Rain since
9am
mm
Dir  Spd
km/h
Gust
km/h
Spd
kts
Gust
kts
14/11:30pm 26.4 23.1 15.1 49 6.9 S 26 32 14 17 1016.5 1015.7 0.2
14/11:00pm 27.1 24.9 14.8 47 7.5 S 20 24 11 13 1016.3 1015.6 0.2
14/10:30pm 27.7 24.9 13.3 41 8.6 S 20 24 11 13 1016.0 1015.2 0.2
14/10:00pm 28.2 25.0 11.3 35 9.7 S 19 20 10 11 1015.6 1014.8 0.2
14/09:30pm 28.7 25.4 10.8 33 10.3 SSW 19 22 10 12 1015.3 1014.5 0.2
14/09:00pm 29.1 25.5 9.8 30 10.9 SSW 19 24 10 13 1014.9 1014.1 0.2
14/08:30pm 29.7 25.9 9.8 29 11.3 SSW 20 24 11 13 1014.6 1013.8 0.2
14/08:00pm 30.4 26.1 9.3 27 11.9 SSW 22 28 12 15 1014.1 1013.3 0.2
14/07:30pm 31.1 27.3 9.9 27 12.1 SW 20 26 11 14 1013.8 1013.0 0.2
14/07:00pm 31.4 26.9 10.2 27 12.2 SSW 24 30 13 16 1013.4 1012.6 0.2
14/06:30pm 32.0 29.5 12.3 30 11.7 S 17 26 9 14 1013.2 1012.4 0.2
14/06:00pm 31.8 30.4 12.1 30 11.7 S 11 20 6 11 1013.2 1012.4 0.2
14/05:30pm 31.8 30.3 13.1 32 11.3 SW 13 20 7 11 1013.2 1012.4 0.2
14/05:06pm 32.1 30.7 13.3 31 11.4 WSW 13 35 7 19 1013.2 1012.4 0.2
14/05:00pm 31.4 29.4 12.7 32 11.2 WSW 15 30 8 16 1013.3 1012.5 0.2
14/04:30pm 31.7 30.0 13.5 33 11.0 SW 15 24 8 13 1013.5 1012.7 0.2
14/04:00pm 31.2 29.5 13.5 34 10.7 SW 15 26 8 14 1013.6 1012.8 0.2

Other Formats:

Comma delimited format used in spreadsheet applications
http://www.bom.gov.au/fwo/IDN60801/IDN60801.95699.axf

JavaScript Object Notation format (JSON) in row-major order
http://www.bom.gov.au/fwo/IDN60801/IDN60801.95699.json